sensor_id;sensor_type;location;lat;lon;timestamp;P1;durP1;ratioP1;P2;durP2;ratioP2
6093;SDS011;19964;42.060;24.700;2023-06-22T00:01:16;10.47;;;9.57;;
6093;SDS011;19964;42.060;24.700;2023-06-22T00:03:43;10.47;;;9.67;;
6093;SDS011;19964;42.060;24.700;2023-06-22T00:06:10;10.33;;;9.53;;
6093;SDS011;19964;42.060;24.700;2023-06-22T00:08:36;11.50;;;10.30;;
6093;SDS011;19964;42.060;24.700;2023-06-22T00:11:06;10.73;;;9.70;;
6093;SDS011;19964;42.060;24.700;2023-06-22T00:13:33;11.20;;;10.00;;
6093;SDS011;19964;42.060;24.700;2023-06-22T00:16:00;11.00;;;9.77;;
6093;SDS011;19964;42.060;24.700;2023-06-22T00:18:27;10.37;;;9.23;;
6093;SDS011;19964;42.060;24.700;2023-06-22T00:20:55;10.63;;;9.73;;
6093;SDS011;19964;42.060;24.700;2023-06-22T00:23:25;10.43;;;9.63;;
6093;SDS011;19964;42.060;24.700;2023-06-22T00:25:52;10.63;;;9.63;;
6093;SDS011;19964;42.060;24.700;2023-06-22T00:28:21;10.53;;;9.63;;
6093;SDS011;19964;42.060;24.700;2023-06-22T00:30:48;10.60;;;9.70;;
6093;SDS011;19964;42.060;24.700;2023-06-22T00:33:15;10.57;;;9.73;;
6093;SDS011;19964;42.060;24.700;2023-06-22T00:35:41;11.80;;;10.73;;
6093;SDS011;19964;42.060;24.700;2023-06-22T00:38:08;10.97;;;10.07;;
6093;SDS011;19964;42.060;24.700;2023-06-22T00:40:35;11.03;;;10.20;;
6093;SDS011;19964;42.060;24.700;2023-06-22T00:43:04;11.00;;;10.03;;
6093;SDS011;19964;42.060;24.700;2023-06-22T00:45:33;10.90;;;10.10;;
6093;SDS011;19964;42.060;24.700;2023-06-22T00:48:00;11.37;;;10.37;;
6093;SDS011;19964;42.060;24.700;2023-06-22T00:50:27;12.10;;;10.90;;
6093;SDS011;19964;42.060;24.700;2023-06-22T00:53:01;11.90;;;10.90;;
6093;SDS011;19964;42.060;24.700;2023-06-22T00:55:33;12.33;;;11.23;;
6093;SDS011;19964;42.060;24.700;2023-06-22T00:58:02;11.97;;;10.97;;
6093;SDS011;19964;42.060;24.700;2023-06-22T01:00:30;10.87;;;10.07;;
6093;SDS011;19964;42.060;24.700;2023-06-22T01:03:00;12.93;;;11.13;;
6093;SDS011;19964;42.060;24.700;2023-06-22T01:05:28;11.77;;;10.77;;
6093;SDS011;19964;42.060;24.700;2023-06-22T01:07:58;12.07;;;10.87;;
6093;SDS011;19964;42.060;24.700;2023-06-22T01:10:34;11.87;;;10.77;;
6093;SDS011;19964;42.060;24.700;2023-06-22T01:13:11;12.67;;;11.47;;
6093;SDS011;19964;42.060;24.700;2023-06-22T01:15:48;11.93;;;10.97;;
6093;SDS011;19964;42.060;24.700;2023-06-22T01:18:19;12.03;;;11.03;;
6093;SDS011;19964;42.060;24.700;2023-06-22T01:20:51;11.80;;;10.80;;
6093;SDS011;19964;42.060;24.700;2023-06-22T01:23:22;12.30;;;11.30;;
6093;SDS011;19964;42.060;24.700;2023-06-22T01:25:57;12.43;;;11.33;;
6093;SDS011;19964;42.060;24.700;2023-06-22T01:28:39;11.87;;;10.97;;
6093;SDS011;19964;42.060;24.700;2023-06-22T01:31:09;12.10;;;11.10;;
6093;SDS011;19964;42.060;24.700;2023-06-22T01:33:42;12.17;;;11.07;;
6093;SDS011;19964;42.060;24.700;2023-06-22T01:36:11;12.73;;;11.63;;
6093;SDS011;19964;42.060;24.700;2023-06-22T01:38:40;12.03;;;11.03;;
6093;SDS011;19964;42.060;24.700;2023-06-22T01:41:08;11.90;;;10.90;;
6093;SDS011;19964;42.060;24.700;2023-06-22T01:43:35;12.27;;;11.13;;
6093;SDS011;19964;42.060;24.700;2023-06-22T01:46:05;12.40;;;11.30;;
6093;SDS011;19964;42.060;24.700;2023-06-22T01:48:32;12.37;;;11.27;;
6093;SDS011;19964;42.060;24.700;2023-06-22T01:50:59;12.33;;;11.33;;
6093;SDS011;19964;42.060;24.700;2023-06-22T01:53:26;12.57;;;11.47;;
6093;SDS011;19964;42.060;24.700;2023-06-22T01:55:54;12.80;;;11.70;;
6093;SDS011;19964;42.060;24.700;2023-06-22T01:58:23;13.10;;;11.80;;
6093;SDS011;19964;42.060;24.700;2023-06-22T02:00:55;13.00;;;11.97;;
6093;SDS011;19964;42.060;24.700;2023-06-22T02:03:30;12.63;;;11.43;;
6093;SDS011;19964;42.060;24.700;2023-06-22T02:06:03;12.70;;;11.50;;
6093;SDS011;19964;42.060;24.700;2023-06-22T02:08:38;12.30;;;11.30;;
6093;SDS011;19964;42.060;24.700;2023-06-22T02:11:08;13.33;;;12.03;;
6093;SDS011;19964;42.060;24.700;2023-06-22T02:13:37;11.67;;;10.67;;
6093;SDS011;19964;42.060;24.700;2023-06-22T02:16:12;13.07;;;11.87;;
6093;SDS011;19964;42.060;24.700;2023-06-22T02:18:45;13.17;;;12.07;;
6093;SDS011;19964;42.060;24.700;2023-06-22T02:21:16;12.43;;;11.37;;
6093;SDS011;19964;42.060;24.700;2023-06-22T02:23:43;12.50;;;11.50;;
6093;SDS011;19964;42.060;24.700;2023-06-22T02:26:09;13.27;;;12.00;;
6093;SDS011;19964;42.060;24.700;2023-06-22T02:28:36;12.90;;;11.63;;
6093;SDS011;19964;42.060;24.700;2023-06-22T02:31:03;12.23;;;11.23;;
6093;SDS011;19964;42.060;24.700;2023-06-22T02:33:32;12.40;;;11.40;;
6093;SDS011;19964;42.060;24.700;2023-06-22T02:35:58;13.70;;;12.40;;
6093;SDS011;19964;42.060;24.700;2023-06-22T02:38:30;12.60;;;11.50;;
6093;SDS011;19964;42.060;24.700;2023-06-22T02:40:59;12.70;;;11.60;;
6093;SDS011;19964;42.060;24.700;2023-06-22T02:43:26;12.40;;;11.40;;
6093;SDS011;19964;42.060;24.700;2023-06-22T02:45:53;12.20;;;11.20;;
6093;SDS011;19964;42.060;24.700;2023-06-22T02:48:21;13.37;;;12.10;;
6093;SDS011;19964;42.060;24.700;2023-06-22T02:50:50;12.40;;;11.33;;
6093;SDS011;19964;42.060;24.700;2023-06-22T02:53:16;12.93;;;11.83;;
6093;SDS011;19964;42.060;24.700;2023-06-22T02:55:43;12.40;;;11.27;;
6093;SDS011;19964;42.060;24.700;2023-06-22T02:58:10;12.53;;;11.47;;
6093;SDS011;19964;42.060;24.700;2023-06-22T03:00:37;12.20;;;11.20;;
6093;SDS011;19964;42.060;24.700;2023-06-22T03:03:04;11.60;;;10.60;;
6093;SDS011;19964;42.060;24.700;2023-06-22T03:05:31;12.63;;;11.33;;
6093;SDS011;19964;42.060;24.700;2023-06-22T03:08:01;13.10;;;11.90;;
6093;SDS011;19964;42.060;24.700;2023-06-22T03:10:29;11.87;;;10.87;;
6093;SDS011;19964;42.060;24.700;2023-06-22T03:12:56;11.87;;;10.87;;
6093;SDS011;19964;42.060;24.700;2023-06-22T03:15:23;12.30;;;11.27;;
6093;SDS011;19964;42.060;24.700;2023-06-22T03:17:50;11.60;;;10.60;;
6093;SDS011;19964;42.060;24.700;2023-06-22T03:20:17;11.70;;;10.80;;
6093;SDS011;19964;42.060;24.700;2023-06-22T03:22:44;11.70;;;10.60;;
6093;SDS011;19964;42.060;24.700;2023-06-22T03:25:12;12.07;;;11.10;;
6093;SDS011;19964;42.060;24.700;2023-06-22T03:27:39;11.97;;;10.90;;
6093;SDS011;19964;42.060;24.700;2023-06-22T03:30:07;11.53;;;10.43;;
6093;SDS011;19964;42.060;24.700;2023-06-22T03:32:35;11.37;;;10.40;;
6093;SDS011;19964;42.060;24.700;2023-06-22T03:35:02;10.87;;;9.87;;
6093;SDS011;19964;42.060;24.700;2023-06-22T03:37:31;10.90;;;9.90;;
6093;SDS011;19964;42.060;24.700;2023-06-22T03:39:58;10.90;;;10.10;;
6093;SDS011;19964;42.060;24.700;2023-06-22T03:42:27;11.20;;;10.30;;
6093;SDS011;19964;42.060;24.700;2023-06-22T03:44:54;11.57;;;10.27;;
6093;SDS011;19964;42.060;24.700;2023-06-22T03:47:21;11.13;;;10.03;;
6093;SDS011;19964;42.060;24.700;2023-06-22T03:49:48;10.23;;;9.33;;
6093;SDS011;19964;42.060;24.700;2023-06-22T03:52:20;11.33;;;10.27;;
6093;SDS011;19964;42.060;24.700;2023-06-22T03:54:47;12.03;;;10.33;;
6093;SDS011;19964;42.060;24.700;2023-06-22T03:57:13;13.20;;;10.60;;
6093;SDS011;19964;42.060;24.700;2023-06-22T03:59:42;17.25;;;11.20;;
6093;SDS011;19964;42.060;24.700;2023-06-22T04:02:08;13.18;;;10.85;;
6093;SDS011;19964;42.060;24.700;2023-06-22T04:04:38;12.70;;;11.32;;
6093;SDS011;19964;42.060;24.700;2023-06-22T04:07:05;12.27;;;11.23;;
6093;SDS011;19964;42.060;24.700;2023-06-22T04:09:32;11.55;;;10.35;;
6093;SDS011;19964;42.060;24.700;2023-06-22T04:11:59;10.68;;;9.65;;
6093;SDS011;19964;42.060;24.700;2023-06-22T04:14:25;9.52;;;8.73;;
6093;SDS011;19964;42.060;24.700;2023-06-22T04:16:55;10.15;;;9.35;;
6093;SDS011;19964;42.060;24.700;2023-06-22T04:19:22;10.38;;;9.30;;
6093;SDS011;19964;42.060;24.700;2023-06-22T04:21:49;10.52;;;9.57;;
6093;SDS011;19964;42.060;24.700;2023-06-22T04:24:16;9.93;;;9.23;;
6093;SDS011;19964;42.060;24.700;2023-06-22T04:26:43;14.90;;;12.40;;
6093;SDS011;19964;42.060;24.700;2023-06-22T04:29:12;14.88;;;12.35;;
6093;SDS011;19964;42.060;24.700;2023-06-22T04:31:39;16.35;;;12.07;;
6093;SDS011;19964;42.060;24.700;2023-06-22T04:34:07;14.07;;;12.40;;
6093;SDS011;19964;42.060;24.700;2023-06-22T04:36:35;13.60;;;12.27;;
6093;SDS011;19964;42.060;24.700;2023-06-22T04:39:06;13.45;;;12.13;;
6093;SDS011;19964;42.060;24.700;2023-06-22T04:41:34;13.38;;;12.15;;
6093;SDS011;19964;42.060;24.700;2023-06-22T04:44:07;13.48;;;12.02;;
6093;SDS011;19964;42.060;24.700;2023-06-22T04:46:38;14.35;;;12.85;;
6093;SDS011;19964;42.060;24.700;2023-06-22T04:49:09;13.45;;;12.27;;
6093;SDS011;19964;42.060;24.700;2023-06-22T04:51:37;13.57;;;12.48;;
6093;SDS011;19964;42.060;24.700;2023-06-22T04:54:05;15.18;;;12.93;;
6093;SDS011;19964;42.060;24.700;2023-06-22T04:56:33;13.38;;;12.30;;
6093;SDS011;19964;42.060;24.700;2023-06-22T04:59:26;14.45;;;12.30;;
6093;SDS011;19964;42.060;24.700;2023-06-22T05:01:57;14.02;;;12.60;;
6093;SDS011;19964;42.060;24.700;2023-06-22T05:04:26;13.82;;;12.63;;
6093;SDS011;19964;42.060;24.700;2023-06-22T05:06:56;13.70;;;12.40;;
6093;SDS011;19964;42.060;24.700;2023-06-22T05:09:26;13.52;;;11.55;;
6093;SDS011;19964;42.060;24.700;2023-06-22T05:11:53;12.77;;;11.43;;
6093;SDS011;19964;42.060;24.700;2023-06-22T05:14:19;12.55;;;11.35;;
6093;SDS011;19964;42.060;24.700;2023-06-22T05:16:46;12.80;;;11.63;;
6093;SDS011;19964;42.060;24.700;2023-06-22T05:19:13;12.07;;;11.05;;
6093;SDS011;19964;42.060;24.700;2023-06-22T05:21:43;12.85;;;11.75;;
6093;SDS011;19964;42.060;24.700;2023-06-22T05:24:10;12.70;;;11.52;;
6093;SDS011;19964;42.060;24.700;2023-06-22T05:26:37;12.63;;;11.50;;
6093;SDS011;19964;42.060;24.700;2023-06-22T05:29:04;14.02;;;11.48;;
6093;SDS011;19964;42.060;24.700;2023-06-22T05:31:31;13.07;;;11.85;;
6093;SDS011;19964;42.060;24.700;2023-06-22T05:33:58;13.43;;;12.23;;
6093;SDS011;19964;42.060;24.700;2023-06-22T05:36:26;14.02;;;12.82;;
6093;SDS011;19964;42.060;24.700;2023-06-22T05:38:56;15.15;;;12.50;;
6093;SDS011;19964;42.060;24.700;2023-06-22T05:41:23;15.20;;;12.48;;
6093;SDS011;19964;42.060;24.700;2023-06-22T05:43:50;13.75;;;12.55;;
6093;SDS011;19964;42.060;24.700;2023-06-22T05:46:17;14.80;;;12.70;;
6093;SDS011;19964;42.060;24.700;2023-06-22T05:48:45;13.50;;;12.30;;
6093;SDS011;19964;42.060;24.700;2023-06-22T05:51:12;13.07;;;11.85;;
6093;SDS011;19964;42.060;24.700;2023-06-22T05:53:40;13.07;;;11.95;;
6093;SDS011;19964;42.060;24.700;2023-06-22T05:56:08;13.70;;;12.30;;
6093;SDS011;19964;42.060;24.700;2023-06-22T05:58:35;15.20;;;12.45;;
6093;SDS011;19964;42.060;24.700;2023-06-22T06:01:01;13.77;;;12.23;;
6093;SDS011;19964;42.060;24.700;2023-06-22T06:03:28;13.27;;;11.90;;
6093;SDS011;19964;42.060;24.700;2023-06-22T06:05:55;13.80;;;11.57;;
6093;SDS011;19964;42.060;24.700;2023-06-22T06:08:22;13.35;;;12.10;;
6093;SDS011;19964;42.060;24.700;2023-06-22T06:10:49;12.63;;;11.63;;
6093;SDS011;19964;42.060;24.700;2023-06-22T06:13:19;14.23;;;12.02;;
6093;SDS011;19964;42.060;24.700;2023-06-22T06:15:49;12.52;;;11.50;;
6093;SDS011;19964;42.060;24.700;2023-06-22T06:18:16;12.88;;;11.68;;
6093;SDS011;19964;42.060;24.700;2023-06-22T06:20:43;12.88;;;11.60;;
6093;SDS011;19964;42.060;24.700;2023-06-22T06:23:10;11.88;;;10.63;;
6093;SDS011;19964;42.060;24.700;2023-06-22T06:25:37;13.65;;;11.43;;
6093;SDS011;19964;42.060;24.700;2023-06-22T06:28:04;13.07;;;11.15;;
6093;SDS011;19964;42.060;24.700;2023-06-22T06:30:32;11.38;;;10.48;;
6093;SDS011;19964;42.060;24.700;2023-06-22T06:32:59;11.85;;;10.75;;
6093;SDS011;19964;42.060;24.700;2023-06-22T06:35:26;11.85;;;10.82;;
6093;SDS011;19964;42.060;24.700;2023-06-22T06:37:54;13.02;;;10.70;;
6093;SDS011;19964;42.060;24.700;2023-06-22T06:40:20;11.90;;;10.55;;
6093;SDS011;19964;42.060;24.700;2023-06-22T06:42:48;12.65;;;10.63;;
6093;SDS011;19964;42.060;24.700;2023-06-22T07:26:39;9.05;;;8.55;;
6093;SDS011;19964;42.060;24.700;2023-06-22T07:29:10;8.43;;;7.93;;
6093;SDS011;19964;42.060;24.700;2023-06-22T07:31:37;8.43;;;7.93;;
6093;SDS011;19964;42.060;24.700;2023-06-22T07:34:05;9.07;;;8.35;;
6093;SDS011;19964;42.060;24.700;2023-06-22T07:36:32;8.00;;;7.40;;
6093;SDS011;19964;42.060;24.700;2023-06-22T07:39:00;8.10;;;7.60;;
6093;SDS011;19964;42.060;24.700;2023-06-22T07:41:27;11.15;;;7.90;;
6093;SDS011;19964;42.060;24.700;2023-06-22T07:43:56;8.73;;;8.10;;
6093;SDS011;19964;42.060;24.700;2023-06-22T07:46:22;8.45;;;7.63;;
6093;SDS011;19964;42.060;24.700;2023-06-22T07:48:49;8.07;;;7.57;;
6093;SDS011;19964;42.060;24.700;2023-06-22T07:51:16;8.00;;;7.20;;
6093;SDS011;19964;42.060;24.700;2023-06-22T07:53:43;8.40;;;7.70;;
6093;SDS011;19964;42.060;24.700;2023-06-22T07:56:10;8.90;;;6.90;;
6093;SDS011;19964;42.060;24.700;2023-06-22T07:58:37;8.27;;;7.40;;
6093;SDS011;19964;42.060;24.700;2023-06-22T08:01:06;8.48;;;7.32;;
6093;SDS011;19964;42.060;24.700;2023-06-22T08:03:33;7.55;;;7.05;;
6093;SDS011;19964;42.060;24.700;2023-06-22T08:06:00;7.38;;;6.88;;
6093;SDS011;19964;42.060;24.700;2023-06-22T08:08:26;7.55;;;7.05;;
6093;SDS011;19964;42.060;24.700;2023-06-22T08:10:53;7.53;;;7.03;;
6093;SDS011;19964;42.060;24.700;2023-06-22T08:13:20;14.13;;;7.88;;
6093;SDS011;19964;42.060;24.700;2023-06-22T08:15:47;8.18;;;7.47;;
6093;SDS011;19964;42.060;24.700;2023-06-22T08:18:15;8.35;;;7.45;;
6093;SDS011;19964;42.060;24.700;2023-06-22T08:20:42;8.05;;;7.18;;
6093;SDS011;19964;42.060;24.700;2023-06-22T08:23:09;7.90;;;7.40;;
6093;SDS011;19964;42.060;24.700;2023-06-22T08:25:36;8.23;;;7.63;;
6093;SDS011;19964;42.060;24.700;2023-06-22T08:28:03;8.55;;;7.75;;
6093;SDS011;19964;42.060;24.700;2023-06-22T08:30:30;9.00;;;8.30;;
6093;SDS011;19964;42.060;24.700;2023-06-22T08:32:57;8.88;;;8.02;;
6093;SDS011;19964;42.060;24.700;2023-06-22T08:35:25;9.20;;;7.82;;
6093;SDS011;19964;42.060;24.700;2023-06-22T08:37:52;8.52;;;7.85;;
6093;SDS011;19964;42.060;24.700;2023-06-22T08:40:19;8.82;;;8.23;;
6093;SDS011;19964;42.060;24.700;2023-06-22T08:42:48;8.48;;;7.68;;
6093;SDS011;19964;42.060;24.700;2023-06-22T08:45:15;8.77;;;7.97;;
6093;SDS011;19964;42.060;24.700;2023-06-22T08:47:42;8.82;;;8.23;;
6093;SDS011;19964;42.060;24.700;2023-06-22T08:50:10;9.18;;;7.78;;
6093;SDS011;19964;42.060;24.700;2023-06-22T08:52:40;8.40;;;7.75;;
6093;SDS011;19964;42.060;24.700;2023-06-22T08:55:07;8.35;;;7.75;;
6093;SDS011;19964;42.060;24.700;2023-06-22T08:57:35;8.05;;;7.45;;
6093;SDS011;19964;42.060;24.700;2023-06-22T09:00:05;8.40;;;7.65;;
6093;SDS011;19964;42.060;24.700;2023-06-22T09:02:41;7.95;;;7.22;;
6093;SDS011;19964;42.060;24.700;2023-06-22T09:05:08;8.07;;;7.45;;
6093;SDS011;19964;42.060;24.700;2023-06-22T09:07:35;8.90;;;8.35;;
6093;SDS011;19964;42.060;24.700;2023-06-22T09:10:04;8.52;;;7.70;;
6093;SDS011;19964;42.060;24.700;2023-06-22T09:12:31;9.05;;;8.32;;
6093;SDS011;19964;42.060;24.700;2023-06-22T09:14:59;9.38;;;7.57;;
6093;SDS011;19964;42.060;24.700;2023-06-22T09:17:26;8.75;;;8.02;;
6093;SDS011;19964;42.060;24.700;2023-06-22T09:19:53;8.57;;;7.97;;
6093;SDS011;19964;42.060;24.700;2023-06-22T09:22:20;8.30;;;7.55;;
6093;SDS011;19964;42.060;24.700;2023-06-22T09:24:47;8.70;;;7.68;;
6093;SDS011;19964;42.060;24.700;2023-06-22T09:27:15;8.40;;;7.28;;
6093;SDS011;19964;42.060;24.700;2023-06-22T09:29:42;8.20;;;7.57;;
6093;SDS011;19964;42.060;24.700;2023-06-22T09:32:09;7.95;;;7.35;;
6093;SDS011;19964;42.060;24.700;2023-06-22T09:34:36;7.63;;;7.10;;
6093;SDS011;19964;42.060;24.700;2023-06-22T09:37:03;7.88;;;7.38;;
6093;SDS011;19964;42.060;24.700;2023-06-22T09:39:30;8.13;;;7.32;;
6093;SDS011;19964;42.060;24.700;2023-06-22T09:41:57;7.60;;;7.00;;
6093;SDS011;19964;42.060;24.700;2023-06-22T09:44:26;8.00;;;7.20;;
6093;SDS011;19964;42.060;24.700;2023-06-22T09:46:53;7.63;;;6.90;;
6093;SDS011;19964;42.060;24.700;2023-06-22T09:49:20;7.40;;;6.90;;
6093;SDS011;19964;42.060;24.700;2023-06-22T09:51:46;8.85;;;7.25;;
6093;SDS011;19964;42.060;24.700;2023-06-22T09:54:14;8.13;;;7.63;;
6093;SDS011;19964;42.060;24.700;2023-06-22T09:56:41;8.70;;;7.80;;
6093;SDS011;19964;42.060;24.700;2023-06-22T09:59:08;8.82;;;7.75;;
6093;SDS011;19964;42.060;24.700;2023-06-22T10:01:36;8.20;;;7.70;;
6093;SDS011;19964;42.060;24.700;2023-06-22T10:04:03;8.38;;;7.72;;
6093;SDS011;19964;42.060;24.700;2023-06-22T10:06:30;8.30;;;7.50;;
6093;SDS011;19964;42.060;24.700;2023-06-22T10:08:57;8.88;;;7.95;;
6093;SDS011;19964;42.060;24.700;2023-06-22T10:11:24;8.38;;;7.70;;
6093;SDS011;19964;42.060;24.700;2023-06-22T10:13:54;8.20;;;7.70;;
6093;SDS011;19964;42.060;24.700;2023-06-22T10:16:23;8.02;;;7.40;;
6093;SDS011;19964;42.060;24.700;2023-06-22T10:18:53;8.65;;;7.80;;
6093;SDS011;19964;42.060;24.700;2023-06-22T10:21:20;7.82;;;7.28;;
6093;SDS011;19964;42.060;24.700;2023-06-22T10:23:46;8.20;;;7.50;;
6093;SDS011;19964;42.060;24.700;2023-06-22T10:26:13;8.35;;;7.72;;
6093;SDS011;19964;42.060;24.700;2023-06-22T10:28:40;7.88;;;7.38;;
6093;SDS011;19964;42.060;24.700;2023-06-22T10:31:07;8.32;;;7.72;;
6093;SDS011;19964;42.060;24.700;2023-06-22T10:33:33;8.13;;;7.43;;
6093;SDS011;19964;42.060;24.700;2023-06-22T10:36:02;8.50;;;7.75;;
6093;SDS011;19964;42.060;24.700;2023-06-22T10:38:29;9.00;;;7.47;;
6093;SDS011;19964;42.060;24.700;2023-06-22T10:40:55;8.77;;;8.07;;
6093;SDS011;19964;42.060;24.700;2023-06-22T10:43:22;8.75;;;8.00;;
6093;SDS011;19964;42.060;24.700;2023-06-22T10:45:49;8.30;;;7.25;;
6093;SDS011;19964;42.060;24.700;2023-06-22T10:48:16;8.35;;;7.70;;
6093;SDS011;19964;42.060;24.700;2023-06-22T10:50:42;8.88;;;7.80;;
6093;SDS011;19964;42.060;24.700;2023-06-22T10:53:10;8.25;;;7.55;;
6093;SDS011;19964;42.060;24.700;2023-06-22T10:55:37;8.32;;;7.72;;
6093;SDS011;19964;42.060;24.700;2023-06-22T10:58:04;8.23;;;7.53;;
6093;SDS011;19964;42.060;24.700;2023-06-22T11:00:31;8.15;;;7.43;;
6093;SDS011;19964;42.060;24.700;2023-06-22T11:02:57;8.05;;;7.53;;
6093;SDS011;19964;42.060;24.700;2023-06-22T11:05:24;8.20;;;7.60;;
6093;SDS011;19964;42.060;24.700;2023-06-22T11:07:51;8.35;;;7.75;;
6093;SDS011;19964;42.060;24.700;2023-06-22T11:10:19;8.43;;;7.65;;
6093;SDS011;19964;42.060;24.700;2023-06-22T11:12:46;8.05;;;7.35;;
6093;SDS011;19964;42.060;24.700;2023-06-22T11:15:13;7.88;;;7.38;;
6093;SDS011;19964;42.060;24.700;2023-06-22T11:17:40;7.90;;;7.28;;
6093;SDS011;19964;42.060;24.700;2023-06-22T11:20:07;9.15;;;8.25;;
6093;SDS011;19964;42.060;24.700;2023-06-22T11:22:36;8.20;;;7.47;;
6093;SDS011;19964;42.060;24.700;2023-06-22T11:25:04;8.50;;;7.68;;
6093;SDS011;19964;42.060;24.700;2023-06-22T11:27:33;9.23;;;8.50;;
6093;SDS011;19964;42.060;24.700;2023-06-22T11:30:00;8.63;;;7.88;;
6093;SDS011;19964;42.060;24.700;2023-06-22T11:32:27;8.55;;;7.97;;
6093;SDS011;19964;42.060;24.700;2023-06-22T11:34:54;8.20;;;7.55;;
6093;SDS011;19964;42.060;24.700;2023-06-22T11:37:21;8.10;;;7.50;;
6093;SDS011;19964;42.060;24.700;2023-06-22T11:39:47;8.75;;;8.13;;
6093;SDS011;19964;42.060;24.700;2023-06-22T11:42:14;8.50;;;7.93;;
6093;SDS011;19964;42.060;24.700;2023-06-22T11:44:43;8.63;;;8.02;;
6093;SDS011;19964;42.060;24.700;2023-06-22T11:47:10;9.07;;;8.30;;
6093;SDS011;19964;42.060;24.700;2023-06-22T11:49:36;9.18;;;8.13;;
6093;SDS011;19964;42.060;24.700;2023-06-22T11:52:03;9.10;;;8.38;;
6093;SDS011;19964;42.060;24.700;2023-06-22T11:54:30;9.13;;;8.43;;
6093;SDS011;19964;42.060;24.700;2023-06-22T11:56:57;10.23;;;9.20;;
6093;SDS011;19964;42.060;24.700;2023-06-22T11:59:24;9.48;;;8.60;;
6093;SDS011;19964;42.060;24.700;2023-06-22T12:01:52;10.52;;;8.90;;
6093;SDS011;19964;42.060;24.700;2023-06-22T12:04:19;8.82;;;8.20;;
6093;SDS011;19964;42.060;24.700;2023-06-22T12:06:45;9.15;;;8.65;;
6093;SDS011;19964;42.060;24.700;2023-06-22T12:09:13;9.30;;;8.60;;
6093;SDS011;19964;42.060;24.700;2023-06-22T12:11:40;9.55;;;8.85;;
6093;SDS011;19964;42.060;24.700;2023-06-22T12:14:07;9.88;;;8.82;;
6093;SDS011;19964;42.060;24.700;2023-06-22T12:16:34;10.48;;;9.30;;
6093;SDS011;19964;42.060;24.700;2023-06-22T12:19:02;9.68;;;8.98;;
6093;SDS011;19964;42.060;24.700;2023-06-22T12:21:29;9.85;;;8.98;;
6093;SDS011;19964;42.060;24.700;2023-06-22T12:23:55;9.73;;;9.02;;
6093;SDS011;19964;42.060;24.700;2023-06-22T12:26:22;9.55;;;8.82;;
6093;SDS011;19964;42.060;24.700;2023-06-22T12:28:49;10.27;;;9.23;;
6093;SDS011;19964;42.060;24.700;2023-06-22T12:31:16;10.35;;;9.25;;
6093;SDS011;19964;42.060;24.700;2023-06-22T12:33:43;10.05;;;9.05;;
6093;SDS011;19964;42.060;24.700;2023-06-22T12:36:11;9.52;;;8.80;;
6093;SDS011;19964;42.060;24.700;2023-06-22T12:38:38;9.32;;;8.70;;
6093;SDS011;19964;42.060;24.700;2023-06-22T12:41:05;10.45;;;9.43;;
6093;SDS011;19964;42.060;24.700;2023-06-22T12:43:31;10.27;;;9.48;;
6093;SDS011;19964;42.060;24.700;2023-06-22T12:45:58;9.82;;;9.05;;
6093;SDS011;19964;42.060;24.700;2023-06-22T12:48:25;9.35;;;8.65;;
6093;SDS011;19964;42.060;24.700;2023-06-22T12:50:52;10.00;;;8.85;;
6093;SDS011;19964;42.060;24.700;2023-06-22T12:53:20;9.75;;;9.00;;
6093;SDS011;19964;42.060;24.700;2023-06-22T12:55:53;10.98;;;8.70;;
6093;SDS011;19964;42.060;24.700;2023-06-22T12:58:20;10.43;;;9.40;;
6093;SDS011;19964;42.060;24.700;2023-06-22T13:00:46;9.93;;;8.98;;
6093;SDS011;19964;42.060;24.700;2023-06-22T13:03:13;9.85;;;8.88;;
6093;SDS011;19964;42.060;24.700;2023-06-22T13:05:40;9.48;;;8.85;;
6093;SDS011;19964;42.060;24.700;2023-06-22T13:08:07;10.43;;;9.63;;
6093;SDS011;19964;42.060;24.700;2023-06-22T13:10:35;10.70;;;9.57;;
6093;SDS011;19964;42.060;24.700;2023-06-22T13:13:02;9.75;;;8.90;;
6093;SDS011;19964;42.060;24.700;2023-06-22T13:15:29;10.65;;;9.52;;
6093;SDS011;19964;42.060;24.700;2023-06-22T13:17:56;10.93;;;9.93;;
6093;SDS011;19964;42.060;24.700;2023-06-22T13:20:23;10.05;;;9.07;;
6093;SDS011;19964;42.060;24.700;2023-06-22T13:22:49;10.90;;;9.98;;
6093;SDS011;19964;42.060;24.700;2023-06-22T13:25:16;9.98;;;9.18;;
6093;SDS011;19964;42.060;24.700;2023-06-22T13:27:46;9.98;;;9.10;;
6093;SDS011;19964;42.060;24.700;2023-06-22T13:30:13;11.15;;;9.32;;
6093;SDS011;19964;42.060;24.700;2023-06-22T13:32:41;9.65;;;8.75;;
6093;SDS011;19964;42.060;24.700;2023-06-22T13:35:08;9.65;;;8.98;;
6093;SDS011;19964;42.060;24.700;2023-06-22T13:37:36;10.32;;;9.52;;
6093;SDS011;19964;42.060;24.700;2023-06-22T13:40:03;10.35;;;9.40;;
6093;SDS011;19964;42.060;24.700;2023-06-22T13:42:32;10.13;;;9.10;;
6093;SDS011;19964;42.060;24.700;2023-06-22T13:45:00;10.63;;;9.70;;
6093;SDS011;19964;42.060;24.700;2023-06-22T13:47:27;10.05;;;9.25;;
6093;SDS011;19964;42.060;24.700;2023-06-22T13:49:54;10.18;;;9.43;;
6093;SDS011;19964;42.060;24.700;2023-06-22T13:52:20;10.43;;;9.32;;
6093;SDS011;19964;42.060;24.700;2023-06-22T13:54:47;10.45;;;9.55;;
6093;SDS011;19964;42.060;24.700;2023-06-22T13:57:14;10.88;;;9.75;;
6093;SDS011;19964;42.060;24.700;2023-06-22T13:59:41;10.13;;;9.32;;
6093;SDS011;19964;42.060;24.700;2023-06-22T14:02:09;10.77;;;9.75;;
6093;SDS011;19964;42.060;24.700;2023-06-22T14:04:36;11.25;;;10.27;;
6093;SDS011;19964;42.060;24.700;2023-06-22T14:07:03;11.65;;;9.52;;
6093;SDS011;19964;42.060;24.700;2023-06-22T14:09:30;10.45;;;9.55;;
6093;SDS011;19964;42.060;24.700;2023-06-22T14:11:57;17.85;;;11.25;;
6093;SDS011;19964;42.060;24.700;2023-06-22T14:14:24;19.08;;;12.48;;
6093;SDS011;19964;42.060;24.700;2023-06-22T14:16:51;15.23;;;12.38;;
6093;SDS011;19964;42.060;24.700;2023-06-22T14:19:20;19.65;;;13.75;;
6093;SDS011;19964;42.060;24.700;2023-06-22T14:21:46;16.77;;;13.20;;
6093;SDS011;19964;42.060;24.700;2023-06-22T14:24:13;15.02;;;13.43;;
6093;SDS011;19964;42.060;24.700;2023-06-22T14:26:40;20.70;;;14.90;;
6093;SDS011;19964;42.060;24.700;2023-06-22T14:29:06;19.85;;;14.40;;
6093;SDS011;19964;42.060;24.700;2023-06-22T14:31:33;21.02;;;15.23;;
6093;SDS011;19964;42.060;24.700;2023-06-22T14:34:00;21.70;;;16.00;;
6093;SDS011;19964;42.060;24.700;2023-06-22T14:36:30;20.38;;;15.95;;
6093;SDS011;19964;42.060;24.700;2023-06-22T14:38:56;18.77;;;16.52;;
6093;SDS011;19964;42.060;24.700;2023-06-22T14:41:23;20.83;;;16.67;;
6093;SDS011;19964;42.060;24.700;2023-06-22T14:43:50;21.45;;;17.38;;
6093;SDS011;19964;42.060;24.700;2023-06-22T14:46:17;21.30;;;17.25;;
6093;SDS011;19964;42.060;24.700;2023-06-22T14:48:45;19.65;;;17.63;;
6093;SDS011;19964;42.060;24.700;2023-06-22T14:51:12;22.38;;;17.55;;
6093;SDS011;19964;42.060;24.700;2023-06-22T14:53:41;19.77;;;17.73;;
6093;SDS011;19964;42.060;24.700;2023-06-22T14:56:08;22.40;;;18.63;;
6093;SDS011;19964;42.060;24.700;2023-06-22T14:58:35;18.98;;;17.02;;
6093;SDS011;19964;42.060;24.700;2023-06-22T15:01:02;18.58;;;16.67;;
6093;SDS011;19964;42.060;24.700;2023-06-22T15:03:29;18.88;;;16.85;;
6093;SDS011;19964;42.060;24.700;2023-06-22T15:05:57;18.52;;;16.58;;
6093;SDS011;19964;42.060;24.700;2023-06-22T15:08:24;17.27;;;15.55;;
6093;SDS011;19964;42.060;24.700;2023-06-22T15:10:53;17.52;;;15.77;;
6093;SDS011;19964;42.060;24.700;2023-06-22T15:13:20;18.38;;;16.58;;
6093;SDS011;19964;42.060;24.700;2023-06-22T15:15:47;19.25;;;17.33;;
6093;SDS011;19964;42.060;24.700;2023-06-22T15:18:14;18.90;;;16.88;;